UsCGcmidgett — NHWR — position and weather

sailwx.info

Track history (hours):
 
Tides and Currents Weather Stations Pressure Air Temp Water Temp Dewpoint Dewpoint Depression Visibility Wind Speed Wind Dir Waves Ship Positions

UsCGcmidgett

Last reported at 2018-Mar-29 09:12 UTC. Time now 2018-Apr-21 17:08 UTC.
Position N 48°46' W 126°32'.
Warning: this ship's position is 23 days out of date.

Length 114 m; draft 6 m.

Type: Law enforcement. MMSI: 367279000.

Date/timePositionNaut miles runAvg speedWind from/ knotsBaromVisibWave heightAir tempDewpointWater temp
2018-Mar-29 09:12N 48°46' W 126°32'420.7
2018-Mar-29 09:00N 48°44' W 126°26'1120.8
2018-Mar-29 08:30N 48°42' W 126°11'1021.1
2018-Mar-29 08:01N 48°39' W 125°56'1120.8
2018-Mar-29 07:30N 48°36' W 125°40'1120.6
2018-Mar-29 06:57N 48°33' W 125°24'920.7
2018-Mar-29 06:30N 48°32' W 125°10'1019.8
2018-Mar-29 06:00N 48°31' W 124°55'1019.5
2018-Mar-29 05:31N 48°30' W 124°41'1020.3
2018-Mar-29 05:01N 48°26' W 124°27'1020.7
2018-Mar-29 04:30N 48°22' W 124°12'1121.2
2018-Mar-29 03:58N 48°18' W 123°56'5920.1
2018-Mar-29 01:02N 47°58' W 122°33'122.9
2018-Mar-29 01:00N 47°57' W 122°33'1121.1
2018-Mar-29 00:30N 47°48' W 122°26'1019.3
2018-Mar-29 00:00N 47°38' W 122°26'4 8.4
2018-Mar-28 23:30N 47°36' W 122°21'0 0.6
2018-Mar-28 23:00N 47°35' W 122°20'0 0.0
2018-Mar-28 22:30N 47°35' W 122°20'0 0.0
2018-Mar-28 22:00N 47°35' W 122°20'0 0.0
2018-Mar-28 21:30N 47°35' W 122°20'0 0.0
2018-Mar-28 21:00N 47°35' W 122°20'0 0.0
2018-Mar-28 20:30N 47°35' W 122°20'0 0.0
2018-Mar-28 20:00N 47°35' W 122°20'0 0.0
2018-Mar-28 19:30N 47°35' W 122°20'0 0.0
2018-Mar-28 19:00N 47°35' W 122°20'0 0.0
2018-Mar-28 18:30N 47°35' W 122°20'0 0.0
2018-Mar-28 18:00N 47°35' W 122°20'0 0.0
2018-Mar-28 17:30N 47°35' W 122°20'  
2018-Mar-20 19:07N 47°35' W 122°20'0 0.0
2018-Mar-20 18:59N 47°35' W 122°20'0 0.0
2018-Mar-20 18:30N 47°35' W 122°20'0 0.0
2018-Mar-20 18:00N 47°35' W 122°20'0 0.0
2018-Mar-20 17:30N 47°35' W 122°20'0 0.0
2018-Mar-20 17:00N 47°35' W 122°20'  
Track history (hours):
 
Tides and Currents Weather Stations Pressure Air Temp Water Temp Dewpoint Dewpoint Depression Visibility Wind Speed Wind Dir Waves Ship Positions

UsCGcmidgett

Last reported at 2018-Mar-29 09:12 UTC. Time now 2018-Apr-21 17:08 UTC.
Position N 48°46' W 126°32'.
Warning: this ship's position is 23 days out of date.

Length 114 m; draft 6 m.

Type: Law enforcement. MMSI: 367279000.

Date/timePositionNaut miles runAvg speedWind from/ knotsBaromVisibWave heightAir tempDewpointWater temp
2018-Mar-29 09:12N 48°46' W 126°32'420.7
2018-Mar-29 09:00N 48°44' W 126°26'1120.8
2018-Mar-29 08:30N 48°42' W 126°11'1021.1
2018-Mar-29 08:01N 48°39' W 125°56'1120.8
2018-Mar-29 07:30N 48°36' W 125°40'1120.6
2018-Mar-29 06:57N 48°33' W 125°24'920.7
2018-Mar-29 06:30N 48°32' W 125°10'1019.8
2018-Mar-29 06:00N 48°31' W 124°55'1019.5
2018-Mar-29 05:31N 48°30' W 124°41'1020.3
2018-Mar-29 05:01N 48°26' W 124°27'1020.7
2018-Mar-29 04:30N 48°22' W 124°12'1121.2
2018-Mar-29 03:58N 48°18' W 123°56'5920.1
2018-Mar-29 01:02N 47°58' W 122°33'122.9
2018-Mar-29 01:00N 47°57' W 122°33'1121.1
2018-Mar-29 00:30N 47°48' W 122°26'1019.3
2018-Mar-29 00:00N 47°38' W 122°26'4 8.4
2018-Mar-28 23:30N 47°36' W 122°21'0 0.6
2018-Mar-28 23:00N 47°35' W 122°20'0 0.0
2018-Mar-28 22:30N 47°35' W 122°20'0 0.0
2018-Mar-28 22:00N 47°35' W 122°20'0 0.0
2018-Mar-28 21:30N 47°35' W 122°20'0 0.0
2018-Mar-28 21:00N 47°35' W 122°20'0 0.0
2018-Mar-28 20:30N 47°35' W 122°20'0 0.0
2018-Mar-28 20:00N 47°35' W 122°20'0 0.0
2018-Mar-28 19:30N 47°35' W 122°20'0 0.0
2018-Mar-28 19:00N 47°35' W 122°20'0 0.0
2018-Mar-28 18:30N 47°35' W 122°20'0 0.0
2018-Mar-28 18:00N 47°35' W 122°20'0 0.0
2018-Mar-28 17:30N 47°35' W 122°20'  
2018-Mar-20 19:07N 47°35' W 122°20'0 0.0
2018-Mar-20 18:59N 47°35' W 122°20'0 0.0
2018-Mar-20 18:30N 47°35' W 122°20'0 0.0
2018-Mar-20 18:00N 47°35' W 122°20'0 0.0
2018-Mar-20 17:30N 47°35' W 122°20'0 0.0
2018-Mar-20 17:00N 47°35' W 122°20'  

Dump ship's entire track history